Paris - Charles De Gaulle, France

12:48 AM CEST on August 30, 2014 (GMT +0200)
Charles de Gaulle | Change Station
CLOSE
Current Station
Airport
Location: Paris / Charles De Gaulle,
Elevation: 367 ft
Nearby Weather Stations

Elev 367 ft 49.02 °N, 2.53 °E | Updated 18 minutes ago

Clear
Clear
63 °F
Feels Like 63 °F
N
5
Wind Variable Wind from West

Today
High -- | Low -- °F
--% Chance of Precip.
Yesterday
High -- | Low -- °F
Precip. -- in
7:03 AM 8:36 PM
Waxing Crescent, 17% visible
Pressure 30.09 in
Visibility -9999.0 miles
Clouds
Dew Point 52 °F
Humidity 68%
Rainfall 0.00 in
Snow Depth Not available.
UV Not available.
Pollen Not available.
Air Quality Not available.
Flu Activity Not available.
METAR LFPG 292230Z 26004KT CAVOK 17/11 Q1019 NOSIG

More Conditions Fewer Conditions

Pressure 30.09 in
Visibility -9999.0 miles
Clouds
Dew Point 52 °F
Humidity 68%
Rainfall 0.00 in
Snow Depth Not available.
UV Not available.
Pollen Not available.
Air Quality Not available.
Flu Activity Not available.
METAR LFPG 292230Z 26004KT CAVOK 17/11 Q1019 NOSIG

More Conditions Fewer Conditions

10-Day Weather Forecast

Almanac

Astronomy

Aug. 30, 2014 Rise Set
Actual Time 7:03 AM CEST 8:36 PM CEST
Civil Twilight 6:30 AM CEST 9:09 PM CEST
Nautical Twilight 5:49 AM CEST 9:50 PM CEST
Astronomical Twilight 5:05 AM CEST 10:34 PM CEST
Moon 12:02 PM CEST (8/30) 10:33 PM CEST (8/30)
Length of Visible Light 14h 39m
Length of Day
13h 33m
Tomorrow will be 3m 28s shorter.
Waxing Crescent, 17% of the Moon is Illuminated
Aug 29
Waxing Crescent
Sep 2
First Quarter
Sep 8
Full
Sep 15
Last Quarter
Sep 24
New

Yesterday's Extremes

Country Highs Country Lows

Community

WunderPhotos

Upload Photos

1,748,363 photos uploaded!

Nearby

Snow Depth

Not available.

Earthquake Activity

City Distance Mag. Time & Date
No recent earthquake activity has been reported nearby.
Minimum magnitude displayed is 2.5.

Coastal Water Temperatures

Place Temperature
No Stations Reporting

Nearby Weather Stations